Terminal Aerodrome Forecast
Issued by NWS

Home | Current Version | Previous Version | Text Only | Print | Product List | Glossary On
Versions: 1 2 3 4 5 6 7 8 9 10 11 12 13 14 15 16 17 18 19 20 21 22 23 24
000
FTUS44 KLZK 271300 AAA
TAFADF
TAF AMD
KADF 271329Z 2713/2812 00000KT P6SM SKC
     FM271500 22006KT P6SM SCT035 SCT100 BKN250
     FM271800 22007KT P6SM VCTS SCT035CB BKN100 OVC250
     FM280100 18006KT P6SM VCSH SCT030 BKN100 OVC250=

USA.gov is the U.S. government's official web portal to all federal, state and local government web resources and services.